Janesville, South Dakota
Current Conditions -  °F | °C
As of 2:15 PM on Monday 24 Nov 2014 (Local Time) from KLCG Reporting Station
Clear Clear  
Wind Chill: 20°   Ceiling: Unl
Heat Index: 33°   Visibility: 10mi
Dew Point: 15°   Wind: 29mph
Humidity: 48%   Direction: 310°NW
Pressure: 29.79"   Gusts: 39mph
Location:  42.9599°N, 97.5079°W
Report Text: KLCG 242015Z AUTO 31025G34KT 10SM CLR 01/M09 A2979 RMK AO2 T00081092
Loading
Personal Weather Stations






























Interactive Weather Map New forecast layout! Learn more

10-Day Weather Forecast

Advertisements
Track Severe Weather on mobile